• Join FlightAware (Why Join?)
  • Login
  • US Flag 
03:22PM EDT


 

Airport Tracker/Info


-or-


 

Live Flight TrackerFlight Track Log ✈ UAL464 ✈ 08-May-2013 ✈ KDEN - KEWR

Flight Track Log - Related Links

Times and Time Zones

All times are in EDT time to prevent confusion due to time zone crossing. See the UAL464 flight status page for this flight to view local times or setup timezone preferences in your user account.

Time Position Orientation Groundspeed Altitude Reporting Facility
EDT Latitude Longitude Course Direction KTS MPH feet Rate Location/Type
10:26AM 39.7833 -104.6000 66° East 212 244 7,800  Level Denver TRACON
10:28AM 39.9312 -104.2299 78° East  Level FlightAware Approximate
10:28AM 39.7222 -104.4750 122° Southeast 296 341 10,900  Level Denver Center
10:29AM 39.9556 -104.0831 78° East  Level FlightAware Approximate
10:29AM 39.7750 -104.3472 62° Northeast 378 435 12,900  Level Denver Center
10:30AM 39.9826 -103.9371 75° East  Level FlightAware Approximate
10:30AM 39.8272 -104.2214 62° Northeast 396 456 16,700  Level Denver Center
10:31AM 40.0085 -103.7912 66° East  Level FlightAware Approximate
10:31AM 39.8864 -104.0825 61° Northeast 415 478 18,100  Level Denver Center
10:32AM 39.9456 -103.9483 60° Northeast 426 490 19,600 1,320 Climbing Denver Center
10:33AM 40.0094 -103.7981 61° Northeast 442 509 20,900 1,200 Climbing Denver Center
10:34AM 40.0436 -103.6389 74° East 434 499 22,100 1,380 Climbing Denver Center
10:35AM 40.0681 -103.4828 78° East 446 513 23,800 1,320 Climbing Denver Center
10:36AM 40.0933 -103.3303 78° East 450 518 24,900 600 Climbing Denver Center
10:37AM 40.1233 -103.1442 78° East 469 540 25,100 240 Climbing Denver Center
10:38AM 40.1492 -102.9786 78° East 485 558 25,500 1,080 Climbing Denver Center
10:39AM 40.1789 -102.7839 79° East 489 563 27,400 1,980 Climbing Denver Center
10:40AM 40.2033 -102.6306 78° East 453 521 29,700 1,500 Climbing Denver Center
10:41AM 40.2303 -102.4553 79° East 444 511 30,500 480 Climbing Denver Center
10:42AM 40.2533 -102.2978 79° East 458 527 30,700 420 Climbing Denver Center
10:43AM 40.2822 -102.1075 79° East 476 548 31,400 780 Climbing Denver Center
10:44AM 40.3069 -101.9456 79° East 474 545 32,400 1,140 Climbing Denver Center
10:45AM 40.3344 -101.7614 79° East 464 534 33,800 960 Climbing Denver Center
10:46AM 40.3572 -101.6061 79° East 455 524 34,500 540 Climbing Denver Center
10:47AM 40.3844 -101.4225 79° East 462 532 35,000 240 Climbing Denver Center
10:48AM 40.4106 -101.2639 78° East 467 537 35,000  Level Denver Center
10:49AM 40.4431 -101.0731 77° East 478 550 35,000  Level Denver Center
10:50AM 40.4694 -100.9108 78° East 478 550 35,000  Level Denver Center
10:51AM 40.5008 -100.7256 77° East 472 543 35,000  Level Denver Center
10:52AM 40.5267 -100.5642 78° East 476 548 35,000  Level Denver Center
10:53AM 40.5583 -100.3747 78° East 479 551 35,000  Level Denver Center
10:55AM 40.5847 -100.2114 78° East 480 552 35,000  Level Denver Center
10:56AM 40.6150 -100.0192 78° East 483 556 35,000  Level Denver Center
10:57AM 40.6417 -99.8531 78° East 485 558 35,000  Level Denver Center
10:58AM 40.6683 -99.6814 78° East 488 562 35,000  Level Denver Center
10:59AM 40.6956 -99.5067 78° East 489 563 35,000  Level Denver Center
11:00AM 40.7278 -99.2964 79° East 490 564 35,000  Level Denver Center
11:01AM 40.7531 -99.1239 79° East 484 557 35,000  Level Denver Center
11:02AM 40.7794 -98.9456 79° East 484 557 35,000  Level Minneapolis Center
11:03AM 40.8044 -98.7711 79° East 484 557 35,000  Level Minneapolis Center
11:04AM 40.8311 -98.5969 79° East 485 558 35,000  Level Minneapolis Center
11:05AM 40.8556 -98.4208 80° East 486 559 35,000  Level Minneapolis Center
11:06AM 40.8864 -98.2092 79° East 488 562 35,000  Level Minneapolis Center
11:07AM 40.9117 -98.0300 79° East 492 566 35,000  Level Minneapolis Center
11:08AM 40.9375 -97.8497 79° East 496 571 35,000  Level Minneapolis Center
11:09AM 40.9622 -97.6686 80° East 499 574 35,000  Level Minneapolis Center
11:10AM 40.9858 -97.4875 80° East 500 575 35,000  Level Minneapolis Center
11:11AM 41.0111 -97.3036 80° East 503 579 35,000  Level Minneapolis Center
11:12AM 41.0403 -97.0839 80° East 506 582 35,000  Level Minneapolis Center
11:13AM 41.0644 -96.8994 80° East 507 583 35,000  Level Minneapolis Center
11:14AM 41.0878 -96.7131 81° East 510 587 35,000  Level Minneapolis Center
11:15AM 41.1108 -96.5272 81° East 513 590 35,000  Level Minneapolis Center
11:16AM 41.1375 -96.3289 80° East 513 590 35,000  Level Minneapolis Center
11:17AM 41.1592 -96.1456 81° East 510 587 35,000  Level Minneapolis Center
11:18AM 41.1794 -95.9622 82° East 508 585 35,000  Level Minneapolis Center
11:19AM 41.2022 -95.7794 81° East 507 583 35,000  Level Minneapolis Center
11:20AM 41.2261 -95.5825 81° East 499 574 35,000  Level Minneapolis Center
11:21AM 41.2478 -95.4047 81° East 493 567 35,000  Level Minneapolis Center
11:22AM 41.2725 -95.1908 81° East 491 565 35,000  Level Minneapolis Center
11:23AM 41.2922 -95.0158 81° East 484 557 35,000  Level Minneapolis Center
11:25AM 41.3114 -94.8447 81° East 475 547 35,000  Level Minneapolis Center
11:26AM 41.3292 -94.6744 82° East 468 539 35,000  Level Minneapolis Center
11:27AM 41.3478 -94.5025 82° East 469 540 35,000  Level Minneapolis Center
11:28AM 41.3667 -94.3294 82° East 473 544 35,000  Level Minneapolis Center
11:29AM 41.3864 -94.1414 82° East 478 550 35,000  Level Minneapolis Center
11:30AM 41.4036 -93.9675 82° East 478 550 35,000  Level Minneapolis Center
11:31AM 41.4217 -93.7908 82° East 482 555 35,000  Level Minneapolis Center
11:32AM 41.4444 -93.5772 82° East 486 559 35,000  Level Minneapolis Center
11:33AM 41.4628 -93.3981 82° East 489 563 35,000  Level Minneapolis Center
11:34AM 41.4764 -93.2558 83° East 489 563 35,000  Level Minneapolis Center
11:35AM 41.4958 -93.0408 83° East 490 564 35,000  Level Minneapolis Center
11:36AM 41.5150 -92.8303 83° East 482 555 35,000  Level Minneapolis Center
11:37AM 41.5311 -92.6567 83° East 477 549 35,000  Level Minneapolis Center
11:38AM 41.5431 -92.5275 83° East 474 545 35,000  Level Chicago Center
11:39AM 41.5583 -92.3522 83° East 479 551 35,000  Level Chicago Center
11:40AM 41.5767 -92.1408 83° East 483 556 35,000  Level Chicago Center
11:41AM 41.5911 -91.9625 84° East 487 560 35,000  Level Chicago Center
11:42AM 41.6058 -91.7858 84° East 487 560 35,000  Level Chicago Center
11:43AM 41.6197 -91.6106 84° East 485 558 35,000  Level Chicago Center
11:44AM 41.6336 -91.4356 84° East 483 556 35,000  Level Chicago Center
11:45AM 41.6494 -91.2233 84° East 483 556 35,000  Level Chicago Center
11:46AM 41.6633 -91.0456 84° East 486 559 35,000  Level Chicago Center
11:47AM 41.6761 -90.8706 84° East 482 555 35,000  Level Chicago Center
11:48AM 41.6892 -90.6942 84° East 482 555 35,000  Level Chicago Center
11:49AM 41.7033 -90.4972 84° East 480 552 35,000  Level Chicago Center
11:50AM 41.7158 -90.3189 85° East 479 551 35,000  Level Chicago Center
11:51AM 41.7281 -90.1406 85° East 479 551 35,000  Level Chicago Center
11:52AM 41.7403 -89.9597 85° East 486 559 35,000  Level Chicago Center
11:53AM 41.7542 -89.7464 85° East 481 554 35,000  Level Chicago Center
11:54AM 41.7656 -89.5722 85° East 473 544 35,000  Level Chicago Center
11:55AM 41.7742 -89.4081 86° East 460 529 35,000  Level Chicago Center
11:56AM 41.7856 -89.2389 85° East 455 524 35,000  Level Chicago Center
11:57AM 41.7942 -89.0661 86° East 466 536 35,000  Level Chicago Center
11:58AM 41.8067 -88.8569 85° East 468 539 35,000  Level Chicago Center
12:00PM 41.8158 -88.6817 86° East 471 542 35,000  Level Chicago Center
12:01PM 41.8253 -88.5075 86° East 469 540 35,000  Level Chicago Center
12:02PM 41.8344 -88.3317 86° East 471 542 35,000  Level Chicago Center
12:03PM 41.8436 -88.1553 86° East 471 542 35,000  Level Chicago Center
12:04PM 41.8517 -87.9822 86° East 465 535 35,000  Level Chicago Center
12:05PM 41.8597 -87.8072 86° East 467 537 35,000  Level Chicago Center
12:06PM 41.8697 -87.5975 86° East 470 541 35,000  Level Chicago Center
12:07PM 41.8778 -87.4236 86° East 468 539 35,000  Level Chicago Center
12:08PM 41.8844 -87.2514 87° East 464 534 35,000  Level Chicago Center
12:09PM 41.8911 -87.0797 87° East 462 532 35,000  Level Chicago Center
12:10PM 41.8986 -86.9075 87° East 464 534 35,000  Level Chicago Center
12:11PM 41.9036 -86.7389 88° East 456 525 35,000  Level Chicago Center
12:12PM 41.9119 -86.5558 86° East 458 527 35,000  Level Chicago Center
12:13PM 41.9178 -86.3864 87° East 456 525 35,000  Level Chicago Center
12:14PM 41.9219 -86.2167 88° East 455 524 35,000  Level Chicago Center
12:15PM 41.9294 -86.0133 87° East 453 521 35,000  Level Chicago Center
12:16PM 41.9347 -85.8439 88° East 453 521 35,000  Level Chicago Center
12:17PM 41.9397 -85.6717 88° East 456 525 35,000  Level Chicago Center
12:18PM 41.9444 -85.4983 88° East 460 529 35,000  Level Chicago Center
12:19PM 41.9492 -85.3253 88° East 460 529 35,000  Level Chicago Center
12:19PM 41.9544 -85.2522 84° East 456 525 35,000  Level Cleveland Center
12:20PM 41.9531 -85.0817 91° East 456 525 35,000  Level Cleveland Center
12:21PM 41.9533 -84.9114 90° East 456 525 35,000  Level Cleveland Center
12:22PM 41.9514 -84.7408 91° East 461 531 35,000  Level Cleveland Center
12:23PM 41.9531 -84.5706 89° East 461 531 35,000  Level Cleveland Center
12:24PM 41.9506 -84.4028 91° East 461 531 35,000  Level Cleveland Center
12:25PM 41.9431 -84.2517 94° East 461 531 35,000  Level Cleveland Center
12:26PM 41.9419 -84.0839 90° East 455 524 35,000  Level Cleveland Center
12:27PM 41.9386 -83.9164 91° East 455 524 35,000  Level Cleveland Center
12:28PM 41.9369 -83.7514 91° East 450 518 35,000  Level Cleveland Center
12:29PM 41.9333 -83.5811 92° East 450 518 35,000  Level Cleveland Center
12:30PM 41.9339 -83.3967 90° East 450 518 35,000  Level Cleveland Center
12:31PM 41.9311 -83.2514 91° East 444 511 35,000 -360 Level Cleveland Center
12:32PM 41.9306 -83.0894 90° East 439 505 34,300 -900 Descending Cleveland Center
12:33PM 41.9297 -82.9219 90° East 439 505 33,200 -1,020 Descending Cleveland Center
12:34PM 41.9289 -82.7575 90° East 439 505 32,300 -900 Descending Cleveland Center
12:35PM 41.9278 -82.5925 90° East 439 505 31,400 -660 Descending Cleveland Center
12:36PM 41.9222 -82.4278 93° East 444 511 31,000 -240 Descending Cleveland Center
12:37PM 41.9247 -82.2603 89° East 444 511 31,000  Level Cleveland Center
12:38PM 41.9208 -82.0817 92° East 438 504 31,000  Level Cleveland Center
12:39PM 41.9186 -81.9253 91° East 427 491 31,000  Level Cleveland Center
12:40PM 41.9142 -81.7775 92° East 407 468 31,000  Level Cleveland Center
12:41PM 41.8989 -81.6292 98° East 400 460 31,000  Level Cleveland Center
12:42PM 41.8878 -81.4814 96° East 400 460 31,000  Level Cleveland Center
12:43PM 41.8739 -81.3500 98° East 400 460 31,000  Level Cleveland Center
12:44PM 41.8583 -81.2019 98° East 400 460 31,000  Level Cleveland Center
12:45PM 41.8444 -81.0569 97° East 387 445 31,000  Level Cleveland Center
12:46PM 41.8344 -80.9119 95° East 387 445 31,000  Level Cleveland Center
12:47PM 41.8203 -80.7697 98° East 387 445 31,000  Level Cleveland Center
12:48PM 41.8036 -80.6139 98° East 387 445 31,000  Level Cleveland Center
12:49PM 41.7889 -80.4689 98° East 387 445 31,100  Climbing Cleveland Center
12:50PM 41.7742 -80.3242 98° East 387 445 31,000 -60 Descending Cleveland Center
12:51PM 41.7614 -80.1822 97° East 387 445 31,000  Level Cleveland Center
12:52PM 41.7461 -80.0378 98° East 387 445 31,000  Level Cleveland Center
12:53PM 41.7328 -79.8958 97° East 387 445 31,000  Level Cleveland Center
12:54PM 41.7172 -79.7569 98° East 387 445 31,000  Level Cleveland Center
12:55PM 41.7017 -79.6181 98° East 387 445 31,000  Level Cleveland Center
12:56PM 41.6878 -79.4764 97° East 387 445 31,000  Level Cleveland Center
12:57PM 41.6719 -79.3378 99° East 387 445 31,000  Level Cleveland Center
12:58PM 41.6556 -79.1936 99° East 394 453 31,000  Level Cleveland Center
12:59PM 41.6414 -79.0550 98° East 387 445 31,000  Level Cleveland Center
01:00PM 41.6225 -78.9111 100° East 387 445 31,000  Level Cleveland Center
01:01PM 41.6078 -78.7642 98° East 392 451 31,000  Level Cleveland Center
01:02PM 41.5908 -78.6147 99° East 397 457 31,000  Level Cleveland Center
01:04PM 41.5611 -78.3761 99° East 404 465 31,000  Level New York Center
01:05PM 41.5436 -78.2244 99° East 409 471 31,000  Level New York Center
01:06PM 41.5258 -78.0756 99° East 414 476 31,000  Level New York Center
01:07PM 41.5058 -77.9239 100° East 414 476 31,000  Level New York Center
01:08PM 41.4856 -77.7747 100° East 414 476 31,000  Level New York Center
01:09PM 41.4647 -77.6314 101° East 409 471 31,000 -480 Level New York Center
01:10PM 41.4439 -77.4881 101° East 399 459 30,100 -1,920 Descending New York Center
01:11PM 41.4194 -77.3278 101° East 392 451 27,200 -3,240 Descending New York Center
01:12PM 41.3983 -77.1792 101° East 397 457 23,600 -2,160 Descending New York Center
01:13PM 41.3811 -77.0364 99° East 397 457 23,000 -360 Descending New York Center
01:14PM 41.3783 -76.8869 91° East 397 457 22,900 -600 Descending New York Center
01:15PM 41.3544 -76.7436 102° East 392 451 21,900 -1,020 Descending New York Center
01:16PM 41.3133 -76.6075 112° Southeast 392 451 20,900 -960 Descending New York Center
01:17PM 41.2700 -76.4683 112° Southeast 397 457 20,000 -1,020 Descending New York Center
01:18PM 41.2308 -76.3300 111° Southeast 397 457 18,900 -1,020 Descending New York Center
01:19PM 41.1892 -76.1969 113° Southeast 397 457 18,000 -960 Descending New York Center
01:20PM 41.1528 -76.0783 112° Southeast 391 450 17,000 -1,080 Descending New York Center
01:21PM 41.1167 -75.9514 111° Southeast 381 438 15,900 -1,200 Descending New York Center
01:22PM 41.0789 -75.8136 110° East 371 427 14,600 -1,200 Descending New York Center
01:23PM 41.0447 -75.6900 110° East 365 420 13,500 -840 Descending New York Center
01:24PM 41.0139 -75.5750 110° East 360 414 13,000 -600 Descending New York Center
01:25PM 40.9772 -75.4489 111° Southeast 355 409 12,400 -780 Descending New York Center
01:26PM 40.9481 -75.3481 111° Southeast 313 360 11,500 -1,140 Descending New York Center
01:27PM 40.9225 -75.2528 110° East 285 328 10,100 -1,620 Descending New York Center
01:28PM 40.9006 -75.1717 110° East 273 314 8,400 -1,560 Descending New York Center
01:29PM 40.8725 -75.0794 112° Southeast 273 314 7,000 -720 Descending New York Center
01:30PM 40.8450 -74.9789 110° East 273 314 7,000  Level New York Center
01:31PM 40.8289 -74.9039 106° East 268 308 7,000 -420 Level New York Center
01:32PM 40.8058 -74.7900 105° East 268 308 6,200 -540 Descending New York Center
01:33PM 40.7772 -74.7117 116° Southeast 263 303 6,000 -420 Descending New York Center
01:34PM 40.7275 -74.6403 133° Southeast 253 291 5,400 -540 Descending New York Center
01:35PM 40.6667 -74.6167 164° South 255 293 5,000 -240 Descending New York TRACON
01:36PM 40.6000 -74.6000 169° South 209 241 5,000 -240 Level New York TRACON
01:37PM 40.5500 -74.5833 166° South 187 215 4,600 -540 Descending New York TRACON
01:38PM 40.5000 -74.5500 153° Southeast 188 216 4,000 -300 Descending New York TRACON
01:39PM 40.4500 -74.5167 153° Southeast 189 217 4,000 -240 Level New York TRACON
01:40PM 40.4000 -74.4833 153° Southeast 188 216 3,600 -480 Descending New York TRACON
01:41PM 40.3500 -74.4500 153° Southeast 195 224 3,000 -300 Descending New York TRACON
01:42PM 40.3667 -74.3833 72° East 216 249 3,000  Level New York TRACON
01:43PM 40.4167 -74.3500 27° Northeast 220 253 3,000  Level New York TRACON
01:44PM 40.4667 -74.3167 27° Northeast 220 253 3,000  Level New York TRACON
01:45PM 40.5167 -74.2667 37° Northeast 203 234 3,000 -300 Level New York TRACON
01:46PM 40.5667 -74.2500 14° North 197 227 2,500 -540 Descending New York TRACON